sensor_id;sensor_type;location;lat;lon;timestamp;pressure;altitude;pressure_sealevel;temperature;humidity
20015;BME280;61787;42.022;23.078;2023-02-28T00:00:37;97204.00;;;11.13;100.00
20015;BME280;61787;42.022;23.078;2023-02-28T00:01:38;97200.66;;;11.16;100.00
20015;BME280;61787;42.022;23.078;2023-02-28T00:02:42;97192.13;;;11.14;100.00
20015;BME280;61787;42.022;23.078;2023-02-28T00:03:44;97201.03;;;11.06;100.00
20015;BME280;61787;42.022;23.078;2023-02-28T00:04:45;97193.19;;;11.01;100.00
20015;BME280;61787;42.022;23.078;2023-02-28T00:05:54;97200.75;;;10.99;100.00
20015;BME280;61787;42.022;23.078;2023-02-28T00:06:55;97196.38;;;10.94;100.00
20015;BME280;61787;42.022;23.078;2023-02-28T00:07:57;97203.19;;;10.92;100.00
20015;BME280;61787;42.022;23.078;2023-02-28T00:08:58;97200.50;;;10.92;100.00
20015;BME280;61787;42.022;23.078;2023-02-28T00:10:00;97196.69;;;10.93;100.00
20015;BME280;61787;42.022;23.078;2023-02-28T00:11:07;97195.28;;;10.95;100.00
20015;BME280;61787;42.022;23.078;2023-02-28T00:12:08;97206.13;;;10.99;100.00
20015;BME280;61787;42.022;23.078;2023-02-28T00:13:11;97199.66;;;11.00;100.00
20015;BME280;61787;42.022;23.078;2023-02-28T00:14:13;97196.84;;;10.96;100.00
20015;BME280;61787;42.022;23.078;2023-02-28T00:15:15;97190.69;;;10.96;100.00
20015;BME280;61787;42.022;23.078;2023-02-28T00:16:20;97192.91;;;10.94;100.00
20015;BME280;61787;42.022;23.078;2023-02-28T00:17:23;97181.75;;;10.83;100.00
20015;BME280;61787;42.022;23.078;2023-02-28T00:18:24;97189.19;;;10.78;100.00
20015;BME280;61787;42.022;23.078;2023-02-28T00:19:26;97182.78;;;10.70;100.00
20015;BME280;61787;42.022;23.078;2023-02-28T00:20:28;97184.41;;;10.62;100.00
20015;BME280;61787;42.022;23.078;2023-02-28T00:21:29;97186.81;;;10.55;100.00
20015;BME280;61787;42.022;23.078;2023-02-28T00:22:31;97190.59;;;10.54;100.00
20015;BME280;61787;42.022;23.078;2023-02-28T00:23:33;97193.47;;;10.49;100.00
20015;BME280;61787;42.022;23.078;2023-02-28T00:24:35;97188.28;;;10.44;100.00
20015;BME280;61787;42.022;23.078;2023-02-28T00:25:36;97196.97;;;10.41;100.00
20015;BME280;61787;42.022;23.078;2023-02-28T00:26:38;97193.00;;;10.47;100.00
20015;BME280;61787;42.022;23.078;2023-02-28T00:27:40;97188.91;;;10.50;100.00
20015;BME280;61787;42.022;23.078;2023-02-28T00:28:42;97195.97;;;10.54;100.00
20015;BME280;61787;42.022;23.078;2023-02-28T00:29:43;97195.31;;;10.57;100.00
20015;BME280;61787;42.022;23.078;2023-02-28T00:30:45;97201.47;;;10.58;100.00
20015;BME280;61787;42.022;23.078;2023-02-28T00:31:46;97202.72;;;10.60;100.00
20015;BME280;61787;42.022;23.078;2023-02-28T00:32:49;97195.00;;;10.59;100.00
20015;BME280;61787;42.022;23.078;2023-02-28T00:33:51;97200.84;;;10.61;100.00
20015;BME280;61787;42.022;23.078;2023-02-28T00:34:53;97199.38;;;10.63;100.00
20015;BME280;61787;42.022;23.078;2023-02-28T00:36:05;97197.81;;;10.62;100.00
20015;BME280;61787;42.022;23.078;2023-02-28T00:37:09;97194.34;;;10.62;100.00
20015;BME280;61787;42.022;23.078;2023-02-28T00:38:12;97198.47;;;10.59;100.00
20015;BME280;61787;42.022;23.078;2023-02-28T00:39:15;97197.53;;;10.55;100.00
20015;BME280;61787;42.022;23.078;2023-02-28T00:40:17;97188.41;;;10.56;100.00
20015;BME280;61787;42.022;23.078;2023-02-28T00:41:18;97190.91;;;10.61;100.00
20015;BME280;61787;42.022;23.078;2023-02-28T00:42:20;97189.56;;;10.67;100.00
20015;BME280;61787;42.022;23.078;2023-02-28T00:43:22;97188.16;;;10.70;100.00
20015;BME280;61787;42.022;23.078;2023-02-28T00:44:23;97186.88;;;10.76;100.00
20015;BME280;61787;42.022;23.078;2023-02-28T00:45:25;97187.66;;;10.77;100.00
20015;BME280;61787;42.022;23.078;2023-02-28T00:46:27;97190.34;;;10.77;100.00
20015;BME280;61787;42.022;23.078;2023-02-28T00:47:28;97196.63;;;10.81;100.00
20015;BME280;61787;42.022;23.078;2023-02-28T00:48:30;97194.44;;;10.74;100.00
20015;BME280;61787;42.022;23.078;2023-02-28T00:49:32;97191.28;;;10.72;100.00
20015;BME280;61787;42.022;23.078;2023-02-28T00:50:34;97199.00;;;10.74;100.00
20015;BME280;61787;42.022;23.078;2023-02-28T00:51:35;97196.16;;;10.79;100.00
20015;BME280;61787;42.022;23.078;2023-02-28T00:52:37;97198.19;;;10.82;100.00
20015;BME280;61787;42.022;23.078;2023-02-28T00:53:38;97199.13;;;10.86;100.00
20015;BME280;61787;42.022;23.078;2023-02-28T00:54:40;97202.72;;;10.90;100.00
20015;BME280;61787;42.022;23.078;2023-02-28T00:55:41;97199.84;;;10.95;100.00
20015;BME280;61787;42.022;23.078;2023-02-28T00:56:43;97200.91;;;11.02;100.00
20015;BME280;61787;42.022;23.078;2023-02-28T00:57:45;97198.03;;;11.07;100.00
20015;BME280;61787;42.022;23.078;2023-02-28T00:58:46;97188.53;;;11.10;99.95
20015;BME280;61787;42.022;23.078;2023-02-28T00:59:48;97193.28;;;11.13;98.10
20015;BME280;61787;42.022;23.078;2023-02-28T01:00:51;97187.75;;;11.09;97.83
20015;BME280;61787;42.022;23.078;2023-02-28T01:01:53;97187.31;;;11.07;97.85
20015;BME280;61787;42.022;23.078;2023-02-28T01:02:55;97188.72;;;11.05;97.43
20015;BME280;61787;42.022;23.078;2023-02-28T01:03:57;97187.03;;;11.00;97.07
20015;BME280;61787;42.022;23.078;2023-02-28T01:04:58;97184.66;;;10.99;96.76
20015;BME280;61787;42.022;23.078;2023-02-28T01:06:00;97191.13;;;10.98;97.63
20015;BME280;61787;42.022;23.078;2023-02-28T01:07:02;97186.63;;;10.90;96.76
20015;BME280;61787;42.022;23.078;2023-02-28T01:08:03;97182.22;;;10.85;97.05
20015;BME280;61787;42.022;23.078;2023-02-28T01:09:06;97180.06;;;10.79;96.63
20015;BME280;61787;42.022;23.078;2023-02-28T01:10:09;97185.09;;;10.80;97.08
20015;BME280;61787;42.022;23.078;2023-02-28T01:11:11;97185.09;;;10.80;96.71
20015;BME280;61787;42.022;23.078;2023-02-28T01:12:13;97177.19;;;10.84;97.12
20015;BME280;61787;42.022;23.078;2023-02-28T01:13:14;97180.34;;;10.86;96.87
20015;BME280;61787;42.022;23.078;2023-02-28T01:14:17;97178.88;;;10.88;97.20
20015;BME280;61787;42.022;23.078;2023-02-28T01:15:19;97182.03;;;10.90;97.23
20015;BME280;61787;42.022;23.078;2023-02-28T01:16:20;97187.09;;;10.92;96.10
20015;BME280;61787;42.022;23.078;2023-02-28T01:17:22;97182.16;;;10.94;96.36
20015;BME280;61787;42.022;23.078;2023-02-28T01:18:24;97188.31;;;10.94;95.95
20015;BME280;61787;42.022;23.078;2023-02-28T01:19:26;97185.31;;;10.96;95.80
20015;BME280;61787;42.022;23.078;2023-02-28T01:20:27;97186.56;;;10.98;96.23
20015;BME280;61787;42.022;23.078;2023-02-28T01:21:29;97186.25;;;11.00;96.17
20015;BME280;61787;42.022;23.078;2023-02-28T01:22:31;97186.72;;;11.02;96.02
20015;BME280;61787;42.022;23.078;2023-02-28T01:23:33;97180.22;;;11.03;95.79
20015;BME280;61787;42.022;23.078;2023-02-28T01:24:35;97178.66;;;11.02;95.68
20015;BME280;61787;42.022;23.078;2023-02-28T01:25:37;97167.78;;;10.98;95.83
20015;BME280;61787;42.022;23.078;2023-02-28T01:26:39;97168.03;;;10.85;97.21
20015;BME280;61787;42.022;23.078;2023-02-28T01:27:41;97174.16;;;10.64;99.00
20015;BME280;61787;42.022;23.078;2023-02-28T01:28:42;97167.69;;;10.57;100.00
20015;BME280;61787;42.022;23.078;2023-02-28T01:29:44;97173.31;;;10.43;100.00
20015;BME280;61787;42.022;23.078;2023-02-28T01:30:50;97178.53;;;10.31;100.00
20015;BME280;61787;42.022;23.078;2023-02-28T01:31:51;97176.94;;;10.39;100.00
20015;BME280;61787;42.022;23.078;2023-02-28T01:32:53;97176.38;;;10.24;99.11
20015;BME280;61787;42.022;23.078;2023-02-28T01:33:55;97178.63;;;10.05;99.00
20015;BME280;61787;42.022;23.078;2023-02-28T01:34:56;97176.31;;;9.87;99.42
20015;BME280;61787;42.022;23.078;2023-02-28T01:36:03;97175.38;;;9.65;100.00
20015;BME280;61787;42.022;23.078;2023-02-28T01:37:05;97171.00;;;9.52;100.00
20015;BME280;61787;42.022;23.078;2023-02-28T01:38:07;97168.94;;;9.49;100.00
20015;BME280;61787;42.022;23.078;2023-02-28T01:39:22;97172.91;;;9.43;100.00
20015;BME280;61787;42.022;23.078;2023-02-28T01:40:24;97177.47;;;9.34;100.00
20015;BME280;61787;42.022;23.078;2023-02-28T01:41:28;97179.84;;;9.27;100.00
20015;BME280;61787;42.022;23.078;2023-02-28T01:42:30;97176.22;;;9.23;100.00
20015;BME280;61787;42.022;23.078;2023-02-28T01:43:56;97182.03;;;9.25;100.00
20015;BME280;61787;42.022;23.078;2023-02-28T01:46:27;97190.53;;;9.27;100.00
20015;BME280;61787;42.022;23.078;2023-02-28T01:47:33;97187.06;;;9.35;100.00
20015;BME280;61787;42.022;23.078;2023-02-28T01:48:42;97191.16;;;9.41;100.00
20015;BME280;61787;42.022;23.078;2023-02-28T01:49:46;97184.56;;;9.38;100.00
20015;BME280;61787;42.022;23.078;2023-02-28T01:50:49;97184.88;;;9.37;100.00
20015;BME280;61787;42.022;23.078;2023-02-28T01:51:54;97187.84;;;9.44;100.00
20015;BME280;61787;42.022;23.078;2023-02-28T01:53:00;97186.75;;;9.45;100.00
20015;BME280;61787;42.022;23.078;2023-02-28T01:54:07;97179.81;;;9.44;100.00
20015;BME280;61787;42.022;23.078;2023-02-28T01:55:16;97188.78;;;9.39;100.00
20015;BME280;61787;42.022;23.078;2023-02-28T01:56:23;97188.97;;;9.34;100.00
20015;BME280;61787;42.022;23.078;2023-02-28T01:57:30;97187.53;;;9.20;100.00
20015;BME280;61787;42.022;23.078;2023-02-28T01:58:38;97189.13;;;9.12;100.00
20015;BME280;61787;42.022;23.078;2023-02-28T02:00:01;97192.75;;;9.08;100.00
20015;BME280;61787;42.022;23.078;2023-02-28T02:01:05;97190.06;;;9.08;100.00
20015;BME280;61787;42.022;23.078;2023-02-28T02:02:07;97193.84;;;9.07;100.00
20015;BME280;61787;42.022;23.078;2023-02-28T02:03:13;97196.50;;;9.07;100.00
20015;BME280;61787;42.022;23.078;2023-02-28T02:04:17;97198.84;;;9.08;100.00
20015;BME280;61787;42.022;23.078;2023-02-28T02:05:23;97201.22;;;9.10;100.00
20015;BME280;61787;42.022;23.078;2023-02-28T02:06:45;97194.94;;;9.06;100.00
20015;BME280;61787;42.022;23.078;2023-02-28T02:07:52;97195.56;;;9.03;100.00
20015;BME280;61787;42.022;23.078;2023-02-28T02:08:55;97202.66;;;9.07;100.00
20015;BME280;61787;42.022;23.078;2023-02-28T02:10:25;97200.28;;;9.06;100.00
20015;BME280;61787;42.022;23.078;2023-02-28T02:11:24;97199.34;;;9.02;100.00
20015;BME280;61787;42.022;23.078;2023-02-28T02:15:16;97208.63;;;9.04;100.00
20015;BME280;61787;42.022;23.078;2023-02-28T02:16:41;97207.81;;;9.04;100.00
20015;BME280;61787;42.022;23.078;2023-02-28T02:17:50;97209.88;;;9.07;100.00
20015;BME280;61787;42.022;23.078;2023-02-28T02:18:54;97212.72;;;9.02;100.00
20015;BME280;61787;42.022;23.078;2023-02-28T02:35:40;97220.28;;;9.17;100.00
20015;BME280;61787;42.022;23.078;2023-02-28T02:36:52;97220.13;;;9.22;100.00
20015;BME280;61787;42.022;23.078;2023-02-28T02:38:24;97227.38;;;9.30;100.00
20015;BME280;61787;42.022;23.078;2023-02-28T02:41:21;97227.53;;;9.25;100.00
20015;BME280;61787;42.022;23.078;2023-02-28T02:42:36;97226.88;;;9.19;100.00
20015;BME280;61787;42.022;23.078;2023-02-28T02:43:49;97225.00;;;9.11;100.00
20015;BME280;61787;42.022;23.078;2023-02-28T02:45:01;97222.31;;;9.03;100.00
20015;BME280;61787;42.022;23.078;2023-02-28T02:46:14;97232.38;;;9.06;100.00
20015;BME280;61787;42.022;23.078;2023-02-28T02:47:20;97228.28;;;8.99;100.00
20015;BME280;61787;42.022;23.078;2023-02-28T02:48:30;97224.16;;;8.93;100.00
20015;BME280;61787;42.022;23.078;2023-02-28T02:49:36;97229.34;;;8.90;100.00
20015;BME280;61787;42.022;23.078;2023-02-28T02:50:43;97227.28;;;8.78;100.00
20015;BME280;61787;42.022;23.078;2023-02-28T02:51:47;97223.78;;;8.69;100.00
20015;BME280;61787;42.022;23.078;2023-02-28T02:52:53;97234.94;;;8.63;100.00
20015;BME280;61787;42.022;23.078;2023-02-28T02:54:02;97239.16;;;8.55;100.00
20015;BME280;61787;42.022;23.078;2023-02-28T02:55:08;97242.75;;;8.50;100.00
20015;BME280;61787;42.022;23.078;2023-02-28T02:56:14;97239.09;;;8.46;100.00
20015;BME280;61787;42.022;23.078;2023-02-28T02:57:24;97241.47;;;8.48;100.00
20015;BME280;61787;42.022;23.078;2023-02-28T02:58:30;97248.06;;;8.42;100.00
20015;BME280;61787;42.022;23.078;2023-02-28T02:59:35;97235.94;;;8.36;100.00
20015;BME280;61787;42.022;23.078;2023-02-28T03:00:41;97251.00;;;8.32;100.00
20015;BME280;61787;42.022;23.078;2023-02-28T03:01:44;97246.13;;;8.34;100.00
20015;BME280;61787;42.022;23.078;2023-02-28T03:02:47;97254.78;;;8.31;100.00
20015;BME280;61787;42.022;23.078;2023-02-28T03:03:50;97254.31;;;8.37;100.00
20015;BME280;61787;42.022;23.078;2023-02-28T03:04:55;97251.25;;;8.52;100.00
20015;BME280;61787;42.022;23.078;2023-02-28T03:06:02;97248.78;;;8.65;100.00
20015;BME280;61787;42.022;23.078;2023-02-28T03:07:04;97244.88;;;8.71;100.00
20015;BME280;61787;42.022;23.078;2023-02-28T03:08:06;97247.22;;;8.72;100.00
20015;BME280;61787;42.022;23.078;2023-02-28T03:09:07;97247.63;;;8.57;100.00
20015;BME280;61787;42.022;23.078;2023-02-28T03:11:29;97252.28;;;8.74;100.00
20015;BME280;61787;42.022;23.078;2023-02-28T03:12:49;97255.94;;;8.86;100.00
20015;BME280;61787;42.022;23.078;2023-02-28T03:14:15;97253.59;;;8.93;100.00
20015;BME280;61787;42.022;23.078;2023-02-28T03:15:27;97255.38;;;9.07;100.00
20015;BME280;61787;42.022;23.078;2023-02-28T03:16:53;97259.78;;;9.20;100.00
20015;BME280;61787;42.022;23.078;2023-02-28T03:18:07;97261.06;;;9.31;100.00
20015;BME280;61787;42.022;23.078;2023-02-28T03:21:20;97254.59;;;9.49;100.00
20015;BME280;61787;42.022;23.078;2023-02-28T03:24:06;97258.25;;;9.62;100.00
20015;BME280;61787;42.022;23.078;2023-02-28T03:26:21;97253.53;;;9.67;100.00
20015;BME280;61787;42.022;23.078;2023-02-28T03:28:41;97254.59;;;9.75;100.00
20015;BME280;61787;42.022;23.078;2023-02-28T03:29:50;97258.56;;;9.77;100.00
20015;BME280;61787;42.022;23.078;2023-02-28T03:31:01;97259.81;;;9.80;100.00
20015;BME280;61787;42.022;23.078;2023-02-28T03:32:21;97260.94;;;9.79;100.00
20015;BME280;61787;42.022;23.078;2023-02-28T03:33:36;97263.91;;;9.77;100.00
20015;BME280;61787;42.022;23.078;2023-02-28T03:34:46;97260.13;;;9.78;100.00
20015;BME280;61787;42.022;23.078;2023-02-28T03:35:54;97262.19;;;9.73;100.00
20015;BME280;61787;42.022;23.078;2023-02-28T03:37:05;97264.22;;;9.67;100.00
20015;BME280;61787;42.022;23.078;2023-02-28T03:38:14;97256.97;;;9.59;100.00
20015;BME280;61787;42.022;23.078;2023-02-28T03:39:28;97256.03;;;9.55;100.00
20015;BME280;61787;42.022;23.078;2023-02-28T03:40:32;97259.19;;;9.57;100.00
20015;BME280;61787;42.022;23.078;2023-02-28T03:41:40;97256.81;;;9.47;100.00
20015;BME280;61787;42.022;23.078;2023-02-28T03:42:46;97260.13;;;9.44;100.00
20015;BME280;61787;42.022;23.078;2023-02-28T03:43:55;97260.13;;;9.35;100.00
20015;BME280;61787;42.022;23.078;2023-02-28T03:45:01;97264.22;;;9.33;100.00
20015;BME280;61787;42.022;23.078;2023-02-28T03:46:09;97269.38;;;9.29;100.00
20015;BME280;61787;42.022;23.078;2023-02-28T03:47:17;97264.38;;;9.28;100.00
20015;BME280;61787;42.022;23.078;2023-02-28T03:48:32;97267.34;;;9.35;100.00
20015;BME280;61787;42.022;23.078;2023-02-28T03:49:43;97259.31;;;9.35;100.00
20015;BME280;61787;42.022;23.078;2023-02-28T03:50:49;97258.88;;;9.33;100.00
20015;BME280;61787;42.022;23.078;2023-02-28T03:51:54;97268.78;;;9.32;100.00
20015;BME280;61787;42.022;23.078;2023-02-28T03:53:08;97270.19;;;9.30;100.00
20015;BME280;61787;42.022;23.078;2023-02-28T03:54:16;97264.03;;;9.29;100.00
20015;BME280;61787;42.022;23.078;2023-02-28T03:55:20;97274.13;;;9.32;100.00
20015;BME280;61787;42.022;23.078;2023-02-28T03:56:27;97268.78;;;9.32;100.00
20015;BME280;61787;42.022;23.078;2023-02-28T03:58:58;97264.22;;;9.33;100.00
20015;BME280;61787;42.022;23.078;2023-02-28T04:00:10;97275.72;;;9.33;100.00
20015;BME280;61787;42.022;23.078;2023-02-28T04:01:34;97275.09;;;9.28;100.00
20015;BME280;61787;42.022;23.078;2023-02-28T04:02:37;97269.38;;;9.21;100.00
20015;BME280;61787;42.022;23.078;2023-02-28T04:03:38;97275.09;;;9.28;100.00
20015;BME280;61787;42.022;23.078;2023-02-28T04:04:40;97277.91;;;9.31;100.00
20015;BME280;61787;42.022;23.078;2023-02-28T04:05:56;97269.88;;;9.40;100.00
20015;BME280;61787;42.022;23.078;2023-02-28T04:07:05;97278.25;;;9.47;100.00
20015;BME280;61787;42.022;23.078;2023-02-28T04:08:07;97270.06;;;9.52;100.00
20015;BME280;61787;42.022;23.078;2023-02-28T04:09:11;97269.91;;;9.57;100.00
20015;BME280;61787;42.022;23.078;2023-02-28T04:10:12;97271.31;;;9.63;100.00
20015;BME280;61787;42.022;23.078;2023-02-28T04:12:15;97280.16;;;9.72;100.00
20015;BME280;61787;42.022;23.078;2023-02-28T04:13:17;97279.97;;;9.77;100.00
20015;BME280;61787;42.022;23.078;2023-02-28T04:14:19;97281.72;;;9.82;100.00
20015;BME280;61787;42.022;23.078;2023-02-28T04:15:20;97284.38;;;9.91;100.00
20015;BME280;61787;42.022;23.078;2023-02-28T04:16:24;97279.34;;;9.98;100.00
20015;BME280;61787;42.022;23.078;2023-02-28T04:17:36;97286.13;;;10.04;100.00
20015;BME280;61787;42.022;23.078;2023-02-28T04:18:41;97285.00;;;10.05;100.00
20015;BME280;61787;42.022;23.078;2023-02-28T04:19:44;97279.16;;;10.03;100.00
20015;BME280;61787;42.022;23.078;2023-02-28T04:20:45;97278.06;;;10.04;100.00
20015;BME280;61787;42.022;23.078;2023-02-28T04:21:49;97278.06;;;10.04;100.00
20015;BME280;61787;42.022;23.078;2023-02-28T04:22:51;97287.34;;;10.06;100.00
20015;BME280;61787;42.022;23.078;2023-02-28T04:23:53;97282.78;;;10.07;100.00
20015;BME280;61787;42.022;23.078;2023-02-28T04:24:54;97279.00;;;10.08;100.00
20015;BME280;61787;42.022;23.078;2023-02-28T04:25:56;97279.16;;;10.11;100.00
20015;BME280;61787;42.022;23.078;2023-02-28T04:26:58;97283.09;;;10.14;100.00
20015;BME280;61787;42.022;23.078;2023-02-28T04:27:59;97288.63;;;10.17;99.77
20015;BME280;61787;42.022;23.078;2023-02-28T04:29:03;97287.22;;;10.20;99.92
20015;BME280;61787;42.022;23.078;2023-02-28T04:30:05;97277.75;;;10.14;100.00
20015;BME280;61787;42.022;23.078;2023-02-28T04:31:08;97283.72;;;10.11;100.00
20015;BME280;61787;42.022;23.078;2023-02-28T04:32:11;97279.66;;;10.05;100.00
20015;BME280;61787;42.022;23.078;2023-02-28T04:33:13;97282.94;;;10.02;100.00
20015;BME280;61787;42.022;23.078;2023-02-28T04:34:15;97293.03;;;9.96;100.00
20015;BME280;61787;42.022;23.078;2023-02-28T04:35:17;97288.47;;;9.97;100.00
20015;BME280;61787;42.022;23.078;2023-02-28T04:36:18;97284.22;;;9.87;99.98
20015;BME280;61787;42.022;23.078;2023-02-28T04:37:20;97290.84;;;9.72;100.00
20015;BME280;61787;42.022;23.078;2023-02-28T04:38:22;97289.75;;;9.56;100.00
20015;BME280;61787;42.022;23.078;2023-02-28T04:39:24;97296.19;;;9.47;100.00
20015;BME280;61787;42.022;23.078;2023-02-28T04:40:26;97294.31;;;9.38;100.00
20015;BME280;61787;42.022;23.078;2023-02-28T04:41:28;97289.72;;;9.39;100.00
20015;BME280;61787;42.022;23.078;2023-02-28T04:42:32;97292.88;;;9.41;100.00
20015;BME280;61787;42.022;23.078;2023-02-28T04:43:36;97292.38;;;9.39;100.00
20015;BME280;61787;42.022;23.078;2023-02-28T04:44:38;97288.16;;;9.38;100.00
20015;BME280;61787;42.022;23.078;2023-02-28T04:45:40;97290.97;;;9.33;100.00
20015;BME280;61787;42.022;23.078;2023-02-28T04:46:42;97296.50;;;9.28;100.00
20015;BME280;61787;42.022;23.078;2023-02-28T04:47:43;97291.59;;;9.30;100.00
20015;BME280;61787;42.022;23.078;2023-02-28T04:48:45;97291.44;;;9.26;100.00
20015;BME280;61787;42.022;23.078;2023-02-28T04:49:47;97287.97;;;9.17;100.00
20015;BME280;61787;42.022;23.078;2023-02-28T04:50:48;97282.56;;;9.09;100.00
20015;BME280;61787;42.022;23.078;2023-02-28T04:51:50;97293.59;;;9.07;100.00
20015;BME280;61787;42.022;23.078;2023-02-28T04:52:51;97291.50;;;8.95;100.00
20015;BME280;61787;42.022;23.078;2023-02-28T04:53:53;97298.72;;;8.86;100.00
20015;BME280;61787;42.022;23.078;2023-02-28T04:54:55;97292.41;;;8.82;100.00
20015;BME280;61787;42.022;23.078;2023-02-28T04:55:57;97297.59;;;8.79;100.00
20015;BME280;61787;42.022;23.078;2023-02-28T04:56:58;97300.09;;;8.75;100.00
20015;BME280;61787;42.022;23.078;2023-02-28T04:58:00;97297.59;;;8.79;100.00
20015;BME280;61787;42.022;23.078;2023-02-28T04:59:02;97296.19;;;8.81;100.00
20015;BME280;61787;42.022;23.078;2023-02-28T05:00:04;97293.81;;;8.80;100.00
20015;BME280;61787;42.022;23.078;2023-02-28T05:01:37;97299.00;;;8.76;100.00
20015;BME280;61787;42.022;23.078;2023-02-28T05:02:38;97306.53;;;8.74;100.00
20015;BME280;61787;42.022;23.078;2023-02-28T05:03:41;97301.03;;;8.71;100.00
20015;BME280;61787;42.022;23.078;2023-02-28T05:04:43;97303.03;;;8.65;100.00
20015;BME280;61787;42.022;23.078;2023-02-28T05:05:44;97307.09;;;8.63;100.00
20015;BME280;61787;42.022;23.078;2023-02-28T05:06:46;97304.63;;;8.66;100.00
20015;BME280;61787;42.022;23.078;2023-02-28T05:07:47;97308.97;;;8.62;100.00
20015;BME280;61787;42.022;23.078;2023-02-28T05:08:49;97311.78;;;8.57;100.00
20015;BME280;61787;42.022;23.078;2023-02-28T05:09:51;97313.38;;;8.58;100.00
20015;BME280;61787;42.022;23.078;2023-02-28T05:10:53;97311.31;;;8.55;100.00
20015;BME280;61787;42.022;23.078;2023-02-28T05:11:55;97316.81;;;8.50;100.00
20015;BME280;61787;42.022;23.078;2023-02-28T05:12:57;97324.53;;;8.51;100.00
20015;BME280;61787;42.022;23.078;2023-02-28T05:13:59;97316.19;;;8.53;100.00
20015;BME280;61787;42.022;23.078;2023-02-28T05:15:00;97318.38;;;8.51;100.00
20015;BME280;61787;42.022;23.078;2023-02-28T05:16:03;97316.81;;;8.50;100.00
20015;BME280;61787;42.022;23.078;2023-02-28T05:17:05;97323.38;;;8.44;100.00
20015;BME280;61787;42.022;23.078;2023-02-28T05:18:08;97321.78;;;8.43;100.00
20015;BME280;61787;42.022;23.078;2023-02-28T05:19:09;97324.00;;;8.41;100.00
20015;BME280;61787;42.022;23.078;2023-02-28T05:20:12;97316.88;;;8.36;100.00
20015;BME280;61787;42.022;23.078;2023-02-28T05:22:26;97323.13;;;8.32;100.00
20015;BME280;61787;42.022;23.078;2023-02-28T05:23:28;97324.94;;;8.23;100.00
20015;BME280;61787;42.022;23.078;2023-02-28T05:24:29;97329.19;;;8.24;100.00
20015;BME280;61787;42.022;23.078;2023-02-28T05:25:31;97325.06;;;8.18;100.00
20015;BME280;61787;42.022;23.078;2023-02-28T05:26:37;97337.16;;;8.15;100.00
20015;BME280;61787;42.022;23.078;2023-02-28T05:27:39;97337.16;;;8.15;100.00
20015;BME280;61787;42.022;23.078;2023-02-28T05:28:40;97337.94;;;8.16;100.00
20015;BME280;61787;42.022;23.078;2023-02-28T05:29:42;97340.28;;;8.17;100.00
20015;BME280;61787;42.022;23.078;2023-02-28T05:30:47;97346.94;;;8.20;100.00
20015;BME280;61787;42.022;23.078;2023-02-28T05:31:49;97345.84;;;8.21;100.00
20015;BME280;61787;42.022;23.078;2023-02-28T05:32:51;97348.19;;;8.22;100.00
20015;BME280;61787;42.022;23.078;2023-02-28T05:33:53;97344.31;;;8.28;100.00
20015;BME280;61787;42.022;23.078;2023-02-28T05:34:54;97346.19;;;8.28;100.00
20015;BME280;61787;42.022;23.078;2023-02-28T05:35:56;97351.06;;;8.26;100.00
20015;BME280;61787;42.022;23.078;2023-02-28T05:36:57;97352.63;;;8.27;100.00
20015;BME280;61787;42.022;23.078;2023-02-28T05:37:59;97347.22;;;8.18;100.00
20015;BME280;61787;42.022;23.078;2023-02-28T05:39:01;97344.72;;;8.22;100.00
20015;BME280;61787;42.022;23.078;2023-02-28T05:40:03;97348.69;;;8.24;100.00
20015;BME280;61787;42.022;23.078;2023-02-28T05:41:08;97348.00;;;8.19;100.00
20015;BME280;61787;42.022;23.078;2023-02-28T05:42:10;97344.84;;;8.17;100.00
20015;BME280;61787;42.022;23.078;2023-02-28T05:43:12;97355.28;;;8.27;100.00
20015;BME280;61787;42.022;23.078;2023-02-28T05:44:14;97349.38;;;8.30;100.00
20015;BME280;61787;42.022;23.078;2023-02-28T05:45:16;97348.28;;;8.31;100.00
20015;BME280;61787;42.022;23.078;2023-02-28T05:46:18;97352.63;;;8.27;100.00
20015;BME280;61787;42.022;23.078;2023-02-28T05:47:19;97355.91;;;8.24;100.00
20015;BME280;61787;42.022;23.078;2023-02-28T05:48:21;97358.28;;;8.25;100.00
20015;BME280;61787;42.022;23.078;2023-02-28T05:49:23;97365.97;;;8.27;100.00
20015;BME280;61787;42.022;23.078;2023-02-28T05:50:25;97369.75;;;8.26;100.00
20015;BME280;61787;42.022;23.078;2023-02-28T05:51:26;97364.31;;;8.31;100.00
20015;BME280;61787;42.022;23.078;2023-02-28T05:52:29;97367.16;;;8.34;100.00
20015;BME280;61787;42.022;23.078;2023-02-28T05:53:33;97363.88;;;8.37;100.00
20015;BME280;61787;42.022;23.078;2023-02-28T05:54:35;97370.69;;;8.43;100.00
20015;BME280;61787;42.022;23.078;2023-02-28T05:55:36;97366.13;;;8.44;100.00
20015;BME280;61787;42.022;23.078;2023-02-28T05:56:38;97370.50;;;8.40;100.00
20015;BME280;61787;42.022;23.078;2023-02-28T05:57:41;97367.97;;;8.35;100.00
20015;BME280;61787;42.022;23.078;2023-02-28T05:58:44;97370.50;;;8.40;100.00
20015;BME280;61787;42.022;23.078;2023-02-28T05:59:45;97375.84;;;8.40;100.00
20015;BME280;61787;42.022;23.078;2023-02-28T06:00:47;97373.31;;;8.35;100.00
20015;BME280;61787;42.022;23.078;2023-02-28T06:01:49;97367.50;;;8.41;100.00
20015;BME280;61787;42.022;23.078;2023-02-28T06:02:51;97371.47;;;8.44;100.00
20015;BME280;61787;42.022;23.078;2023-02-28T06:03:59;97368.78;;;8.44;100.00
20015;BME280;61787;42.022;23.078;2023-02-28T06:05:01;97368.19;;;8.47;100.00
20015;BME280;61787;42.022;23.078;2023-02-28T06:06:03;97366.63;;;8.46;100.00
20015;BME280;61787;42.022;23.078;2023-02-28T06:07:04;97368.50;;;8.45;100.00
20015;BME280;61787;42.022;23.078;2023-02-28T06:08:06;97365.50;;;8.47;100.00
20015;BME280;61787;42.022;23.078;2023-02-28T06:09:08;97365.50;;;8.47;100.00